Time;durP1;ratioP1;P1;durP2;ratioP2;P2;SDS_P1;SDS_P2;PMS_P1;PMS_P2;Temp;Humidity;BMP_temperature;BMP_pressure;BME280_temperature;BME280_humidity;BME280_pressure;Samples;Min_cycle;Max_cycle;Signal;HPM_P1;HPM_P2
2023/01/12 00:02:48;;;;;;;19.80;13.70;;;;;;;;;;6246500;28;20120;-73
2023/01/12 00:05:49;;;;;;;19.70;14.35;;;;;;;;;;6244056;28;20056;-70
2023/01/12 00:08:52;;;;;;;20.48;13.23;;;;;;;;;;6245542;28;20071;-73
2023/01/12 00:11:57;;;;;;;20.95;13.95;;;;;;;;;;6244751;28;20314;-73
2023/01/12 00:14:59;;;;;;;25.17;12.85;;;;;;;;;;6247381;28;20045;-72
2023/01/12 00:18:01;;;;;;;18.42;12.57;;;;;;;;;;6247465;28;20077;-73
2023/01/12 00:21:03;;;;;;;20.33;13.25;;;;;;;;;;6248580;28;20246;-73
2023/01/12 00:24:09;;;;;;;24.77;13.70;;;;;;;;;;6247299;28;20045;-72
2023/01/12 00:27:13;;;;;;;21.48;13.00;;;;;;;;;;6250604;28;20297;-73
2023/01/12 00:30:16;;;;;;;24.63;14.00;;;;;;;;;;6247403;28;20356;-73
2023/01/12 00:33:18;;;;;;;20.15;12.77;;;;;;;;;;6249418;28;20253;-73
2023/01/12 00:36:20;;;;;;;22.67;13.40;;;;;;;;;;6248547;28;20049;-73
2023/01/12 00:39:22;;;;;;;20.80;13.13;;;;;;;;;;6247920;28;20056;-72
2023/01/12 00:45:49;;;;;;;19.58;12.32;;;;;;;;;;6247953;28;20238;-72
2023/01/12 00:48:51;;;;;;;20.67;12.90;;;;;;;;;;6248023;28;20119;-71
2023/01/12 00:51:53;;;;;;;21.08;13.32;;;;;;;;;;6248019;28;20045;-73
2023/01/12 00:54:55;;;;;;;19.92;13.55;;;;;;;;;;6246556;28;20107;-73
2023/01/12 00:57:58;;;;;;;18.40;12.93;;;;;;;;;;6243686;28;20053;-73
2023/01/12 01:01:05;;;;;;;20.77;13.50;;;;;;;;;;6245887;28;20057;-72
2023/01/12 01:04:07;;;;;;;21.13;12.98;;;;;;;;;;6244454;28;20128;-73
2023/01/12 01:07:09;;;;;;;19.83;13.20;;;;;;;;;;6248141;28;20059;-70
2023/01/12 01:10:11;;;;;;;18.85;12.85;;;;;;;;;;6250366;28;20061;-72
2023/01/12 01:13:15;;;;;;;19.55;13.23;;;;;;;;;;6247172;28;20367;-73
2023/01/12 01:16:18;;;;;;;19.58;12.27;;;;;;;;;;6244309;28;20346;-69
2023/01/12 01:19:20;;;;;;;21.80;13.02;;;;;;;;;;6247272;28;20096;-74
2023/01/12 01:22:22;;;;;;;25.73;13.85;;;;;;;;;;6246274;28;20063;-73
2023/01/12 01:25:24;;;;;;;23.50;13.75;;;;;;;;;;6250024;28;20049;-73
2023/01/12 01:28:27;;;;;;;22.67;14.02;;;;;;;;;;6246134;28;20154;-73
2023/01/12 01:31:28;;;;;;;27.27;15.02;;;;;;;;;;6245795;28;20338;-73
2023/01/12 01:34:30;;;;;;;23.35;14.13;;;;;;;;;;6244548;28;20678;-70
2023/01/12 01:37:32;;;;;;;22.38;14.13;;;;;;;;;;6249480;28;20345;-72
2023/01/12 01:40:34;;;;;;;25.52;13.70;;;;;;;;;;6248619;28;20060;-72
2023/01/12 01:43:51;;;;;;;26.80;14.70;;;;;;;;;;6246196;28;20037;-72
2023/01/12 01:46:55;;;;;;;25.35;14.10;;;;;;;;;;6246795;28;20060;-74
2023/01/12 01:49:59;;;;;;;26.25;14.82;;;;;;;;;;6246193;28;20049;-74
2023/01/12 01:53:04;;;;;;;23.60;15.05;;;;;;;;;;6245218;28;20209;-73
2023/01/12 01:56:10;;;;;;;24.40;15.25;;;;;;;;;;6244040;28;20072;-73
2023/01/12 01:59:18;;;;;;;29.30;15.95;;;;;;;;;;6244950;28;20049;-74
2023/01/12 02:02:20;;;;;;;28.15;16.92;;;;;;;;;;6243445;28;20058;-72
2023/01/12 02:05:25;;;;;;;24.17;16.58;;;;;;;;;;6245510;28;20060;-73
2023/01/12 02:08:31;;;;;;;25.88;16.55;;;;;;;;;;6244907;28;20064;-73
2023/01/12 02:18:19;;;;;;;25.15;15.73;;;;;;;;;;6245412;28;20141;-73
2023/01/12 02:21:36;;;;;;;24.58;16.17;;;;;;;;;;6246518;28;20038;-72
2023/01/12 02:25:09;;;;;;;25.52;17.38;;;;;;;;;;6242356;28;20057;-72
2023/01/12 02:28:24;;;;;;;27.80;16.30;;;;;;;;;;6234226;28;20049;-72
2023/01/12 02:31:42;;;;;;;27.42;16.60;;;;;;;;;;6247484;28;20055;-73
2023/01/12 02:34:51;;;;;;;27.30;16.65;;;;;;;;;;6246566;28;20057;-70
2023/01/12 02:38:00;;;;;;;20.75;14.77;;;;;;;;;;6250194;28;20057;-73
2023/01/12 02:41:08;;;;;;;27.75;16.27;;;;;;;;;;6242984;28;20225;-72
2023/01/12 02:44:13;;;;;;;22.80;14.85;;;;;;;;;;6246394;28;20061;-69
2023/01/12 02:47:18;;;;;;;26.85;15.85;;;;;;;;;;6246797;28;20041;-72
2023/01/12 02:50:23;;;;;;;25.67;15.30;;;;;;;;;;6244806;28;20087;-74
2023/01/12 02:53:30;;;;;;;24.58;16.20;;;;;;;;;;6242566;28;20050;-73
2023/01/12 02:56:34;;;;;;;25.13;16.40;;;;;;;;;;6244699;28;20041;-73
2023/01/12 02:59:38;;;;;;;25.67;16.38;;;;;;;;;;6245934;28;20045;-73
2023/01/12 03:02:41;;;;;;;24.52;16.02;;;;;;;;;;6247605;28;20045;-73
2023/01/12 03:05:43;;;;;;;29.65;17.08;;;;;;;;;;6247067;28;20060;-73
2023/01/12 03:08:47;;;;;;;28.73;15.75;;;;;;;;;;6245733;28;20317;-73
2023/01/12 03:11:51;;;;;;;23.08;14.77;;;;;;;;;;6248637;28;20045;-73
2023/01/12 03:14:53;;;;;;;24.05;15.55;;;;;;;;;;6245353;28;20053;-69
2023/01/12 03:18:00;;;;;;;23.55;14.90;;;;;;;;;;6249870;28;20057;-73
2023/01/12 03:21:06;;;;;;;23.60;13.82;;;;;;;;;;6246770;28;20281;-71
2023/01/12 03:24:11;;;;;;;21.65;14.10;;;;;;;;;;6242785;28;20054;-72
2023/01/12 03:27:15;;;;;;;23.42;14.70;;;;;;;;;;6246932;28;20222;-70
2023/01/12 03:30:19;;;;;;;24.75;13.77;;;;;;;;;;6247478;28;20249;-72
2023/01/12 03:33:23;;;;;;;22.95;14.13;;;;;;;;;;6245534;28;20341;-71
2023/01/12 03:36:33;;;;;;;22.50;14.35;;;;;;;;;;6246502;28;20058;-73
2023/01/12 03:39:40;;;;;;;23.52;14.45;;;;;;;;;;6248804;28;20064;-74
2023/01/12 03:42:46;;;;;;;23.55;14.18;;;;;;;;;;6244790;28;20056;-72
2023/01/12 03:45:50;;;;;;;21.98;14.95;;;;;;;;;;6246761;28;20081;-73
2023/01/12 03:48:57;;;;;;;29.63;15.75;;;;;;;;;;6251467;28;20052;-73
2023/01/12 03:52:00;;;;;;;22.73;14.27;;;;;;;;;;6246585;28;20090;-70
2023/01/12 03:55:03;;;;;;;27.73;16.45;;;;;;;;;;6249805;28;20057;-71
2023/01/12 03:58:06;;;;;;;29.10;15.93;;;;;;;;;;6251547;28;20069;-70
2023/01/12 04:01:07;;;;;;;25.48;15.88;;;;;;;;;;6247707;28;20054;-72
2023/01/12 04:04:10;;;;;;;23.85;16.02;;;;;;;;;;6248313;28;20172;-71
2023/01/12 04:07:12;;;;;;;22.20;15.40;;;;;;;;;;6248588;28;20053;-72
2023/01/12 04:10:14;;;;;;;23.35;16.45;;;;;;;;;;6248778;28;20046;-71
2023/01/12 04:13:16;;;;;;;21.77;15.73;;;;;;;;;;6249433;28;20063;-71
2023/01/12 04:16:18;;;;;;;24.98;14.88;;;;;;;;;;6249449;28;20045;-71
2023/01/12 04:19:21;;;;;;;27.17;15.32;;;;;;;;;;6248567;28;20059;-72
2023/01/12 04:25:42;;;;;;;27.75;15.18;;;;;;;;;;6252362;28;20337;-69
2023/01/12 04:28:43;;;;;;;25.60;16.13;;;;;;;;;;6245859;28;20341;-71
2023/01/12 04:31:45;;;;;;;24.77;15.68;;;;;;;;;;6246263;28;20053;-71
2023/01/12 04:34:48;;;;;;;21.02;15.52;;;;;;;;;;6249127;28;20060;-69
2023/01/12 04:37:51;;;;;;;23.90;15.27;;;;;;;;;;6246860;28;20050;-70
2023/01/12 04:40:54;;;;;;;29.92;16.70;;;;;;;;;;6245970;28;20049;-69
2023/01/12 04:43:55;;;;;;;26.00;16.42;;;;;;;;;;6249070;28;20102;-70
2023/01/12 04:46:57;;;;;;;26.00;15.68;;;;;;;;;;6247216;28;20053;-71
2023/01/12 04:50:00;;;;;;;24.25;15.75;;;;;;;;;;6246223;28;20049;-71
2023/01/12 04:53:03;;;;;;;25.75;16.50;;;;;;;;;;6247418;28;20103;-71
2023/01/12 04:56:05;;;;;;;25.27;15.95;;;;;;;;;;6247774;28;20250;-71
2023/01/12 04:59:09;;;;;;;24.52;14.82;;;;;;;;;;6247838;28;20061;-71
2023/01/12 05:02:11;;;;;;;24.70;14.52;;;;;;;;;;6246891;28;20069;-70
2023/01/12 05:05:14;;;;;;;24.38;14.65;;;;;;;;;;6249469;28;20053;-71
2023/01/12 05:11:35;;;;;;;22.58;14.05;;;;;;;;;;6247948;28;20049;-71
2023/01/12 05:14:37;;;;;;;20.92;13.63;;;;;;;;;;6249005;28;20103;-70
2023/01/12 05:17:38;;;;;;;21.95;13.88;;;;;;;;;;6248852;28;20285;-71
2023/01/12 05:20:42;;;;;;;21.05;13.23;;;;;;;;;;6247768;28;20057;-71
2023/01/12 05:23:43;;;;;;;19.48;12.63;;;;;;;;;;6248408;28;20046;-70
2023/01/12 05:26:45;;;;;;;20.98;13.20;;;;;;;;;;6244900;28;20057;-71
2023/01/12 05:29:48;;;;;;;20.65;13.00;;;;;;;;;;6246326;28;20061;-69
2023/01/12 05:32:50;;;;;;;22.42;13.13;;;;;;;;;;6246441;28;20042;-71
2023/01/12 05:35:53;;;;;;;23.48;13.60;;;;;;;;;;6246646;28;20072;-71
2023/01/12 05:38:55;;;;;;;22.75;12.95;;;;;;;;;;6246079;28;20221;-71
2023/01/12 05:45:16;;;;;;;24.90;12.80;;;;;;;;;;6247595;28;20325;-70
2023/01/12 05:48:17;;;;;;;21.90;12.55;;;;;;;;;;6248312;28;20053;-71
2023/01/12 05:51:20;;;;;;;23.10;13.32;;;;;;;;;;6243985;28;20063;-71
2023/01/12 05:54:23;;;;;;;21.33;12.50;;;;;;;;;;6247718;28;20329;-71
2023/01/12 05:57:24;;;;;;;27.05;12.98;;;;;;;;;;6245956;28;20046;-71
2023/01/12 06:00:31;;;;;;;23.98;12.52;;;;;;;;;;6247506;28;20053;-71
2023/01/12 06:03:32;;;;;;;24.70;13.30;;;;;;;;;;6245884;28;20050;-72
2023/01/12 06:06:35;;;;;;;22.45;13.07;;;;;;;;;;6243933;28;20683;-73
2023/01/12 06:09:37;;;;;;;18.38;12.45;;;;;;;;;;6246312;28;20054;-71
2023/01/12 06:16:03;;;;;;;24.02;12.93;;;;;;;;;;6244146;28;20057;-70
2023/01/12 06:19:05;;;;;;;23.65;13.48;;;;;;;;;;6245724;28;20041;-67
2023/01/12 06:22:08;;;;;;;24.30;12.90;;;;;;;;;;6246262;28;20096;-70
2023/01/12 06:25:11;;;;;;;24.53;12.50;;;;;;;;;;6245295;28;20229;-70
2023/01/12 06:28:13;;;;;;;19.55;12.30;;;;;;;;;;6241837;28;20088;-72
2023/01/12 06:31:15;;;;;;;21.58;12.43;;;;;;;;;;6246557;28;20053;-72
2023/01/12 06:34:17;;;;;;;27.35;12.32;;;;;;;;;;6245694;28;20099;-72
2023/01/12 06:37:20;;;;;;;19.17;12.15;;;;;;;;;;6245181;28;20436;-71
2023/01/12 06:40:22;;;;;;;33.55;13.25;;;;;;;;;;6244939;28;20106;-70
2023/01/12 06:43:24;;;;;;;23.08;13.20;;;;;;;;;;6246641;28;20360;-72
2023/01/12 06:46:26;;;;;;;23.92;12.85;;;;;;;;;;6243104;28;20098;-71
2023/01/12 06:49:28;;;;;;;18.75;12.07;;;;;;;;;;6245891;28;20060;-72
2023/01/12 06:52:31;;;;;;;22.75;13.23;;;;;;;;;;6244676;28;20045;-70
2023/01/12 06:55:33;;;;;;;21.02;12.82;;;;;;;;;;6241825;28;20479;-67
2023/01/12 06:58:34;;;;;;;23.10;13.20;;;;;;;;;;6246205;28;20061;-72
2023/01/12 07:01:36;;;;;;;24.48;12.25;;;;;;;;;;6242627;28;20207;-72
2023/01/12 07:04:38;;;;;;;20.60;12.00;;;;;;;;;;6244207;28;20053;-71
2023/01/12 07:07:42;;;;;;;30.55;12.68;;;;;;;;;;6244158;28;20233;-69
2023/01/12 07:10:43;;;;;;;18.98;11.63;;;;;;;;;;6243967;28;20060;-71
2023/01/12 07:13:45;;;;;;;23.92;12.57;;;;;;;;;;6244416;28;20053;-71
2023/01/12 07:16:47;;;;;;;20.38;12.18;;;;;;;;;;6243639;28;20045;-72
2023/01/12 07:19:49;;;;;;;23.33;11.95;;;;;;;;;;6248708;28;20061;-71
2023/01/12 07:22:52;;;;;;;25.35;12.18;;;;;;;;;;6244487;28;20404;-72
2023/01/12 07:25:53;;;;;;;18.77;11.77;;;;;;;;;;6245387;28;20049;-72
2023/01/12 07:28:55;;;;;;;24.90;12.52;;;;;;;;;;6247973;28;20050;-71
2023/01/12 07:31:57;;;;;;;24.52;12.15;;;;;;;;;;6244327;28;20058;-71
2023/01/12 07:34:59;;;;;;;25.15;13.05;;;;;;;;;;6247235;28;20053;-70
2023/01/12 07:38:02;;;;;;;21.80;11.40;;;;;;;;;;6245693;28;20053;-72
2023/01/12 07:41:04;;;;;;;23.15;11.75;;;;;;;;;;6244251;28;20061;-71
2023/01/12 07:44:06;;;;;;;27.17;14.10;;;;;;;;;;6246998;28;20069;-68
2023/01/12 07:47:07;;;;;;;21.85;12.82;;;;;;;;;;6245571;28;20050;-73
2023/01/12 07:50:10;;;;;;;25.63;12.40;;;;;;;;;;6246819;28;20071;-73
2023/01/12 07:53:14;;;;;;;20.60;12.73;;;;;;;;;;6243960;28;20355;-71
2023/01/12 07:56:16;;;;;;;29.97;13.20;;;;;;;;;;6245568;28;20098;-72
2023/01/12 07:59:17;;;;;;;27.13;12.93;;;;;;;;;;6246322;28;20629;-70
2023/01/12 08:02:19;;;;;;;24.88;13.38;;;;;;;;;;6247299;28;20060;-72
2023/01/12 08:05:22;;;;;;;21.13;12.27;;;;;;;;;;6244537;28;20045;-72
2023/01/12 08:08:25;;;;;;;30.65;12.90;;;;;;;;;;6245017;28;20053;-72
2023/01/12 08:11:26;;;;;;;26.08;12.07;;;;;;;;;;6247012;28;20324;-67
2023/01/12 08:14:32;;;;;;;22.73;12.07;;;;;;;;;;6246009;28;20057;-71
2023/01/12 08:17:37;;;;;;;25.75;12.35;;;;;;;;;;6246164;28;20045;-71
2023/01/12 08:20:38;;;;;;;23.38;11.55;;;;;;;;;;6244199;28;20388;-73
2023/01/12 08:23:43;;;;;;;23.33;13.75;;;;;;;;;;6246140;28;20049;-72
2023/01/12 08:26:46;;;;;;;24.58;13.57;;;;;;;;;;6244913;28;20054;-72
2023/01/12 08:29:49;;;;;;;25.40;15.10;;;;;;;;;;6245914;28;20107;-73
2023/01/12 08:32:51;;;;;;;20.30;13.50;;;;;;;;;;6244077;28;20061;-71
2023/01/12 08:35:53;;;;;;;20.55;13.02;;;;;;;;;;6247813;28;20214;-70
2023/01/12 08:38:57;;;;;;;20.55;12.50;;;;;;;;;;6249804;28;20045;-70
2023/01/12 08:41:58;;;;;;;23.80;13.60;;;;;;;;;;6247880;28;20843;-72
2023/01/12 08:45:00;;;;;;;21.60;13.30;;;;;;;;;;6247930;28;20329;-72
2023/01/12 08:48:01;;;;;;;22.40;12.57;;;;;;;;;;6248439;28;20103;-70
2023/01/12 08:51:04;;;;;;;22.38;13.15;;;;;;;;;;6246081;28;20342;-72
2023/01/12 08:54:09;;;;;;;24.58;14.00;;;;;;;;;;6248800;28;20131;-72
2023/01/12 08:57:11;;;;;;;22.60;13.63;;;;;;;;;;6246840;28;20058;-70
2023/01/12 09:00:13;;;;;;;21.98;14.30;;;;;;;;;;6249010;28;20121;-72
2023/01/12 09:03:15;;;;;;;21.35;13.82;;;;;;;;;;6247433;28;20065;-71
2023/01/12 09:06:19;;;;;;;20.10;13.88;;;;;;;;;;6248851;28;20057;-68
2023/01/12 09:09:22;;;;;;;22.08;14.10;;;;;;;;;;6250013;28;20089;-72
2023/01/12 09:12:25;;;;;;;20.52;13.73;;;;;;;;;;6248556;28;20061;-72
2023/01/12 09:15:27;;;;;;;20.70;13.27;;;;;;;;;;6248280;28;20423;-72
2023/01/12 09:18:29;;;;;;;23.35;14.20;;;;;;;;;;6248608;28;20091;-68
2023/01/12 09:21:31;;;;;;;20.30;13.48;;;;;;;;;;6248619;28;20057;-69
2023/01/12 09:24:34;;;;;;;21.63;14.85;;;;;;;;;;6247542;28;20064;-67
2023/01/12 09:27:36;;;;;;;27.77;13.93;;;;;;;;;;6250045;28;20109;-72
2023/01/12 09:30:38;;;;;;;20.58;13.90;;;;;;;;;;6248333;28;20099;-73
2023/01/12 09:33:40;;;;;;;22.33;15.88;;;;;;;;;;6249120;28;20051;-73
2023/01/12 09:36:43;;;;;;;20.52;15.63;;;;;;;;;;6249384;28;20660;-71
2023/01/12 09:39:46;;;;;;;25.67;16.45;;;;;;;;;;6248454;28;20095;-72
2023/01/12 09:49:38;;;;;;;24.10;16.10;;;;;;;;;;6247862;28;20069;-73
2023/01/12 09:52:44;;;;;;;20.67;15.73;;;;;;;;;;6248926;28;20053;-72
2023/01/12 09:55:53;;;;;;;23.23;16.15;;;;;;;;;;6247285;28;20088;-72
2023/01/12 09:59:19;;;;;;;20.77;15.77;;;;;;;;;;6247091;28;20053;-72
2023/01/12 10:02:21;;;;;;;26.27;15.77;;;;;;;;;;6246889;28;20049;-72
2023/01/12 10:05:42;;;;;;;23.30;15.90;;;;;;;;;;6248189;28;20064;-72
2023/01/12 10:08:46;;;;;;;25.90;16.80;;;;;;;;;;6248710;28;20049;-72
2023/01/12 10:11:51;;;;;;;;;;;;;;;;;;6249341;28;20198;-73
2023/01/12 10:15:08;;;;;;;26.85;15.45;;;;;;;;;;6245599;28;19917;-71
2023/01/12 10:18:17;;;;;;;29.13;17.13;;;;;;;;;;6247898;28;20053;-70
2023/01/12 10:21:18;;;;;;;24.73;15.95;;;;;;;;;;6246612;28;20045;-73
2023/01/12 10:24:21;;;;;;;27.35;17.05;;;;;;;;;;6244030;28;20079;-69
2023/01/12 10:27:24;;;;;;;27.40;16.67;;;;;;;;;;6248587;28;20103;-73
2023/01/12 10:30:30;;;;;;;28.70;17.30;;;;;;;;;;6244986;28;20047;-72
2023/01/12 10:33:34;;;;;;;26.92;16.83;;;;;;;;;;6245410;28;20045;-72
2023/01/12 10:36:41;;;;;;;25.98;17.70;;;;;;;;;;6248835;28;20117;-71
2023/01/12 10:39:43;;;;;;;28.42;17.30;;;;;;;;;;6246853;28;20096;-72
2023/01/12 10:46:13;;;;;;;25.98;17.42;;;;;;;;;;6245819;28;20049;-72
2023/01/12 10:49:16;;;;;;;;;;;;;;;;;;6249018;28;20041;-72
2023/01/12 10:52:28;;;;;;;29.65;17.42;;;;;;;;;;6244955;28;19925;-71
2023/01/12 10:55:32;;;;;;;26.42;17.65;;;;;;;;;;6248311;28;20053;-73
2023/01/12 10:58:35;;;;;;;37.38;18.63;;;;;;;;;;6244052;28;20057;-69
2023/01/12 11:01:44;;;;;;;29.02;19.55;;;;;;;;;;6246145;28;20057;-70
2023/01/12 11:04:48;;;;;;;29.20;19.23;;;;;;;;;;6246927;28;20084;-71
2023/01/12 11:07:50;;;;;;;31.90;19.00;;;;;;;;;;6247934;28;20123;-72
2023/01/12 11:10:52;;;;;;;33.58;18.73;;;;;;;;;;6245315;28;20057;-72
2023/01/12 11:13:57;;;;;;;27.05;18.08;;;;;;;;;;6243911;28;20053;-71
2023/01/12 11:17:27;;;;;;;33.53;19.13;;;;;;;;;;6245880;28;20100;-72
2023/01/12 11:20:32;;;;;;;30.15;19.23;;;;;;;;;;6245115;28;20268;-72
2023/01/12 11:23:37;;;;;;;31.30;18.85;;;;;;;;;;6245125;28;20045;-70
2023/01/12 11:26:44;;;;;;;29.58;17.92;;;;;;;;;;6247182;28;20057;-72
2023/01/12 11:29:54;;;;;;;26.10;18.40;;;;;;;;;;6244652;28;20053;-72
2023/01/12 11:32:59;;;;;;;26.23;17.70;;;;;;;;;;6248319;28;20326;-73
2023/01/12 11:36:05;;;;;;;26.65;17.73;;;;;;;;;;6245763;28;20458;-72
2023/01/12 11:39:08;;;;;;;25.80;17.92;;;;;;;;;;6245190;28;20430;-72
2023/01/12 11:45:43;;;;;;;27.50;17.83;;;;;;;;;;6245915;28;20148;-72
2023/01/12 11:48:49;;;;;;;24.23;16.88;;;;;;;;;;6242588;28;20060;-71
2023/01/12 11:51:54;;;;;;;26.05;17.25;;;;;;;;;;6248096;28;20329;-73
2023/01/12 11:54:56;;;;;;;79.30;51.80;;;;;;;;;;6244431;28;20066;-76
2023/01/12 11:58:05;;;;;;;44.38;30.38;;;;;;;;;;6244374;28;20060;-76
2023/01/12 12:01:15;;;;;;;24.67;18.50;;;;;;;;;;6242865;28;20054;-72
2023/01/12 12:04:29;;;;;;;27.33;18.13;;;;;;;;;;6243921;28;20100;-71
2023/01/12 12:07:42;;;;;;;26.33;17.10;;;;;;;;;;6245943;28;20284;-72
2023/01/12 12:10:48;;;;;;;22.55;16.10;;;;;;;;;;6248683;28;20256;-72
2023/01/12 12:13:55;;;;;;;21.83;15.45;;;;;;;;;;6248848;28;20100;-72
2023/01/12 12:17:05;;;;;;;22.05;15.77;;;;;;;;;;6247936;28;20053;-71
2023/01/12 12:20:16;;;;;;;22.30;16.42;;;;;;;;;;6248360;28;20064;-72
2023/01/12 12:23:26;;;;;;;25.45;15.10;;;;;;;;;;6249278;28;20257;-68
2023/01/12 12:26:30;;;;;;;23.55;16.25;;;;;;;;;;6248542;28;20049;-67
2023/01/12 12:29:43;;;;;;;21.73;15.25;;;;;;;;;;6250722;28;20061;-73
2023/01/12 12:32:50;;;;;;;62.13;42.95;;;;;;;;;;6249002;28;20053;-77
2023/01/12 12:36:01;;;;;;;81.00;55.90;;;;;;;;;;6250430;28;20224;-76
2023/01/12 12:39:36;;;;;;;37.95;26.30;;;;;;;;;;6248719;28;20347;-77
2023/01/12 12:46:13;;;;;;;20.35;15.20;;;;;;;;;;6246340;28;20084;-72
2023/01/12 12:49:20;;;;;;;22.08;15.60;;;;;;;;;;6248579;28;20049;-73
2023/01/12 12:52:24;;;;;;;19.77;16.10;;;;;;;;;;6245988;28;20079;-73
2023/01/12 12:55:27;;;;;;;20.60;14.75;;;;;;;;;;6246021;28;20045;-72
2023/01/12 12:58:38;;;;;;;21.75;15.02;;;;;;;;;;6248352;28;20054;-72
2023/01/12 13:01:42;;;;;;;19.33;15.13;;;;;;;;;;6249328;28;20053;-68
2023/01/12 13:05:02;;;;;;;21.48;16.35;;;;;;;;;;6249200;28;20068;-69
2023/01/12 13:08:04;;;;;;;19.45;15.13;;;;;;;;;;6249668;28;20057;-73
2023/01/12 13:11:05;;;;;;;22.00;15.88;;;;;;;;;;6248455;28;20045;-73
2023/01/12 13:14:18;;;;;;;21.48;15.60;;;;;;;;;;6248161;28;20148;-71
2023/01/12 13:17:51;;;;;;;22.67;15.73;;;;;;;;;;6247933;28;20481;-73
2023/01/12 13:20:58;;;;;;;22.70;15.57;;;;;;;;;;6166874;28;20418;-68
2023/01/12 13:24:25;;;;;;;20.27;15.52;;;;;;;;;;6167496;28;20062;-73
2023/01/12 13:27:54;;;;;;;20.92;15.77;;;;;;;;;;6169644;28;20066;-72
2023/01/12 13:30:57;;;;;;;22.20;16.42;;;;;;;;;;6168059;28;20050;-69
2023/01/12 13:34:29;;;;;;;24.40;16.83;;;;;;;;;;6165437;28;20047;-72
2023/01/12 13:37:42;;;;;;;22.90;16.95;;;;;;;;;;6169075;28;20043;-72
2023/01/12 13:40:44;;;;;;;29.23;18.58;;;;;;;;;;6167047;28;20054;-73
2023/01/12 13:43:52;;;;;;;29.60;20.88;;;;;;;;;;6168247;28;20054;-71
2023/01/12 13:47:02;;;;;;;30.40;21.88;;;;;;;;;;6167590;28;20043;-71
2023/01/12 13:50:04;;;;;;;33.38;22.73;;;;;;;;;;6168398;28;20062;-72
2023/01/12 13:53:21;;;;;;;29.45;21.67;;;;;;;;;;6167800;28;20051;-71
2023/01/12 13:56:23;;;;;;;37.65;23.08;;;;;;;;;;6246205;28;20057;-71
2023/01/12 13:59:26;;;;;;;35.65;22.38;;;;;;;;;;6251616;28;20108;-71
2023/01/12 14:02:31;;;;;;;30.90;22.02;;;;;;;;;;6249254;28;20052;-71
2023/01/12 14:05:54;;;;;;;34.88;22.27;;;;;;;;;;6247439;28;20053;-71
2023/01/12 14:09:08;;;;;;;33.20;21.90;;;;;;;;;;6248506;28;20054;-71
2023/01/12 14:12:45;;;;;;;31.73;21.98;;;;;;;;;;6245839;28;20053;-71
2023/01/12 14:19:25;;;;;;;37.72;22.67;;;;;;;;;;6248230;28;20045;-70
2023/01/12 14:22:27;;;;;;;30.50;22.05;;;;;;;;;;6248100;28;20057;-71
2023/01/12 14:25:30;;;;;;;32.30;21.25;;;;;;;;;;6247295;28;20041;-71
2023/01/12 14:28:32;;;;;;;31.15;21.88;;;;;;;;;;6245366;28;20057;-72
2023/01/12 14:31:38;;;;;;;31.20;22.33;;;;;;;;;;6247350;28;20061;-72
2023/01/12 14:34:45;;;;;;;29.15;21.23;;;;;;;;;;6247137;28;20051;-71
2023/01/12 14:37:49;;;;;;;35.25;21.27;;;;;;;;;;6248515;28;20053;-70
2023/01/12 14:40:55;;;;;;;;;;;;;;;;;;6245899;28;20382;-70
2023/01/12 14:47:23;;;;;;;29.02;20.30;;;;;;;;;;6248106;28;20056;-71
2023/01/12 14:50:25;;;;;;;27.00;19.52;;;;;;;;;;6246644;28;20057;-71
2023/01/12 14:53:45;;;;;;;32.03;19.90;;;;;;;;;;6249059;28;20087;-71
2023/01/12 14:56:55;;;;;;;27.13;20.00;;;;;;;;;;6248435;28;20072;-71
2023/01/12 14:59:57;;;;;;;29.42;20.13;;;;;;;;;;6247503;28;20053;-70
2023/01/12 15:03:01;;;;;;;27.92;20.20;;;;;;;;;;6245277;28;20087;-71
2023/01/12 15:06:03;;;;;;;29.13;19.67;;;;;;;;;;6242419;28;20135;-67
2023/01/12 15:09:09;;;;;;;30.48;19.80;;;;;;;;;;6245070;28;20324;-71
2023/01/12 15:12:43;;;;;;;29.02;20.23;;;;;;;;;;6246467;28;20241;-70
2023/01/12 15:25:45;;;;;;;28.08;20.10;;;;;;;;;;6246426;28;20054;-70
2023/01/12 15:28:49;;;;;;;28.88;20.17;;;;;;;;;;6245942;28;20053;-72
2023/01/12 15:31:51;;;;;;;31.52;21.20;;;;;;;;;;6246216;28;20049;-71
2023/01/12 15:34:52;;;;;;;30.10;20.42;;;;;;;;;;6246363;28;20226;-72
2023/01/12 15:37:55;;;;;;;29.23;19.73;;;;;;;;;;6245985;28;20141;-74
2023/01/12 15:40:57;;;;;;;32.17;22.00;;;;;;;;;;6246104;28;20049;-75
2023/01/12 15:44:00;;;;;;;36.03;21.70;;;;;;;;;;6248866;28;20064;-75
2023/01/12 15:47:02;;;;;;;34.33;22.17;;;;;;;;;;6251433;28;20049;-76
2023/01/12 15:50:04;;;;;;;64.68;38.03;;;;;;;;;;6251602;28;20058;-74
2023/01/12 15:53:11;;;;;;;33.40;22.83;;;;;;;;;;6253152;28;20045;-72
2023/01/12 15:56:15;;;;;;;29.27;20.55;;;;;;;;;;6251500;28;20076;-67
2023/01/12 15:59:18;;;;;;;30.13;20.53;;;;;;;;;;6249256;28;20057;-72
2023/01/12 16:02:26;;;;;;;32.50;19.58;;;;;;;;;;6251066;28;20063;-73
2023/01/12 16:05:30;;;;;;;30.58;19.65;;;;;;;;;;6247488;28;20053;-71
2023/01/12 16:08:31;;;;;;;30.60;19.00;;;;;;;;;;6247598;28;20105;-72
2023/01/12 16:11:33;;;;;;;27.77;19.70;;;;;;;;;;6245637;28;20090;-70
2023/01/12 16:14:37;;;;;;;30.25;19.90;;;;;;;;;;6247858;28;20052;-72
2023/01/12 16:17:42;;;;;;;30.92;20.58;;;;;;;;;;6250815;28;20080;-72
2023/01/12 16:20:44;;;;;;;27.00;19.23;;;;;;;;;;6249347;28;20060;-73
2023/01/12 16:23:46;;;;;;;31.80;19.73;;;;;;;;;;6247230;28;20056;-72
2023/01/12 16:26:48;;;;;;;30.25;19.15;;;;;;;;;;6249060;28;20187;-74
2023/01/12 16:29:52;;;;;;;32.83;19.65;;;;;;;;;;6246013;28;20113;-68
2023/01/12 16:32:55;;;;;;;26.15;19.23;;;;;;;;;;6251441;28;20234;-72
2023/01/12 16:36:00;;;;;;;28.47;19.13;;;;;;;;;;6248281;28;20083;-72
2023/01/12 16:39:02;;;;;;;31.33;19.23;;;;;;;;;;6248436;28;20913;-72
2023/01/12 16:42:05;;;;;;;28.55;19.48;;;;;;;;;;6250369;28;20067;-72
2023/01/12 16:45:12;;;;;;;27.48;18.20;;;;;;;;;;6252476;28;20103;-71
2023/01/12 16:48:22;;;;;;;26.75;19.17;;;;;;;;;;6245958;28;20045;-73
2023/01/12 16:51:25;;;;;;;30.38;19.95;;;;;;;;;;6252153;28;20120;-72
2023/01/12 16:54:28;;;;;;;30.70;19.98;;;;;;;;;;6247301;28;20337;-69
2023/01/12 16:57:34;;;;;;;27.13;19.55;;;;;;;;;;6250866;28;20136;-72
2023/01/12 17:00:38;;;;;;;29.58;19.35;;;;;;;;;;6241618;28;20153;-72
2023/01/12 17:03:42;;;;;;;;;;;;;;;;;;6257020;28;20060;-70
2023/01/12 17:06:45;;;;;;;30.88;19.42;;;;;;;;;;6244298;28;20267;-67
2023/01/12 17:09:48;;;;;;;30.45;19.75;;;;;;;;;;6247464;28;20071;-73
2023/01/12 17:12:50;;;;;;;32.10;19.90;;;;;;;;;;6245274;28;20061;-74
2023/01/12 17:15:53;;;;;;;27.00;19.02;;;;;;;;;;6244655;28;20057;-72
2023/01/12 17:18:55;;;;;;;28.85;20.45;;;;;;;;;;6249496;28;20046;-75
2023/01/12 17:21:57;;;;;;;28.20;19.33;;;;;;;;;;6245311;28;20049;-68
2023/01/12 17:24:59;;;;;;;28.67;19.50;;;;;;;;;;6248103;28;20053;-71
2023/01/12 17:28:01;;;;;;;31.90;19.90;;;;;;;;;;6248143;28;20045;-72
2023/01/12 17:31:08;;;;;;;29.42;19.65;;;;;;;;;;6250496;28;20226;-71
2023/01/12 17:34:13;;;;;;;28.80;20.35;;;;;;;;;;6249603;28;20116;-72
2023/01/12 17:37:15;;;;;;;31.10;18.58;;;;;;;;;;6248034;28;20251;-74
2023/01/12 17:40:17;;;;;;;31.45;19.83;;;;;;;;;;6248473;28;20052;-69
2023/01/12 17:43:19;;;;;;;29.15;19.42;;;;;;;;;;6248949;28;20072;-68
2023/01/12 17:46:22;;;;;;;28.33;18.88;;;;;;;;;;6247908;28;20058;-72
2023/01/12 17:49:24;;;;;;;29.97;19.17;;;;;;;;;;6248708;28;20277;-71
2023/01/12 17:52:26;;;;;;;28.00;19.92;;;;;;;;;;6246107;28;20087;-72
2023/01/12 17:55:27;;;;;;;25.63;19.08;;;;;;;;;;6250178;28;20112;-72
2023/01/12 17:58:29;;;;;;;31.73;19.30;;;;;;;;;;6247043;28;20175;-71
2023/01/12 18:01:34;;;;;;;28.42;19.52;;;;;;;;;;6247679;28;20049;-68
2023/01/12 18:04:35;;;;;;;30.42;19.23;;;;;;;;;;6246200;28;20064;-67
2023/01/12 18:07:37;;;;;;;29.17;19.40;;;;;;;;;;6248401;28;20057;-72
2023/01/12 18:10:39;;;;;;;28.40;19.40;;;;;;;;;;6245659;28;20046;-68
2023/01/12 18:13:41;;;;;;;27.70;19.45;;;;;;;;;;6247207;28;20057;-72
2023/01/12 18:16:45;;;;;;;30.02;20.48;;;;;;;;;;6244639;28;20378;-70
2023/01/12 18:19:47;;;;;;;28.83;20.05;;;;;;;;;;6246838;28;20049;-72
2023/01/12 18:22:53;;;;;;;28.80;19.70;;;;;;;;;;6244599;28;20080;-66
2023/01/12 18:25:55;;;;;;;30.40;19.10;;;;;;;;;;6245157;28;20053;-73
2023/01/12 18:28:58;;;;;;;29.75;20.83;;;;;;;;;;6246965;28;20046;-69
2023/01/12 18:32:01;;;;;;;31.30;19.63;;;;;;;;;;6243451;28;20338;-72
2023/01/12 18:35:03;;;;;;;30.85;20.23;;;;;;;;;;6245375;28;20042;-67
2023/01/12 18:38:06;;;;;;;31.67;21.02;;;;;;;;;;6245598;28;20075;-72
2023/01/12 18:44:29;;;;;;;33.67;19.55;;;;;;;;;;6245587;28;20057;-73
2023/01/12 18:54:12;;;;;;;30.35;19.58;;;;;;;;;;6250645;28;20057;-72
2023/01/12 18:57:15;;;;;;;28.35;19.50;;;;;;;;;;6246666;28;20057;-71
2023/01/12 19:00:17;;;;;;;26.90;19.00;;;;;;;;;;6246320;28;20061;-72
2023/01/12 19:03:20;;;;;;;28.50;20.08;;;;;;;;;;6244518;28;20060;-71
2023/01/12 19:06:25;;;;;;;28.33;20.13;;;;;;;;;;6246668;28;20053;-69